sensor_id;sensor_type;location;lat;lon;timestamp;temperature;humidity
28725;DHT22;43472;48.980;9.646;2022-08-03T00:03:29;18.00;99.90
28725;DHT22;43472;48.980;9.646;2022-08-03T00:08:31;17.90;99.90
28725;DHT22;43472;48.980;9.646;2022-08-03T00:13:38;17.60;99.90
28725;DHT22;43472;48.980;9.646;2022-08-03T00:18:41;18.00;99.90
28725;DHT22;43472;48.980;9.646;2022-08-03T00:23:43;17.90;99.90
28725;DHT22;43472;48.980;9.646;2022-08-03T00:28:53;18.00;99.90
28725;DHT22;43472;48.980;9.646;2022-08-03T00:33:54;17.90;99.90
28725;DHT22;43472;48.980;9.646;2022-08-03T00:39:00;17.80;99.90
28725;DHT22;43472;48.980;9.646;2022-08-03T00:44:02;17.40;99.90
28725;DHT22;43472;48.980;9.646;2022-08-03T00:49:04;17.60;99.90
28725;DHT22;43472;48.980;9.646;2022-08-03T00:54:05;17.30;99.90
28725;DHT22;43472;48.980;9.646;2022-08-03T00:59:09;17.00;99.90
28725;DHT22;43472;48.980;9.646;2022-08-03T01:04:11;17.40;99.90
28725;DHT22;43472;48.980;9.646;2022-08-03T01:09:50;17.50;99.90
28725;DHT22;43472;48.980;9.646;2022-08-03T01:14:59;17.40;99.90
28725;DHT22;43472;48.980;9.646;2022-08-03T01:20:08;17.50;99.90
28725;DHT22;43472;48.980;9.646;2022-08-03T01:30:29;17.10;99.90
28725;DHT22;43472;48.980;9.646;2022-08-03T01:35:34;17.50;99.90
28725;DHT22;43472;48.980;9.646;2022-08-03T01:40:40;16.70;99.90
28725;DHT22;43472;48.980;9.646;2022-08-03T01:56:19;17.10;99.90
28725;DHT22;43472;48.980;9.646;2022-08-03T02:01:23;16.70;99.90
28725;DHT22;43472;48.980;9.646;2022-08-03T02:06:47;16.70;99.90
28725;DHT22;43472;48.980;9.646;2022-08-03T02:12:07;17.00;99.90
28725;DHT22;43472;48.980;9.646;2022-08-03T02:17:10;16.80;99.90
28725;DHT22;43472;48.980;9.646;2022-08-03T02:22:13;16.20;99.90
28725;DHT22;43472;48.980;9.646;2022-08-03T02:27:22;16.60;99.90
28725;DHT22;43472;48.980;9.646;2022-08-03T02:32:29;16.50;99.90
28725;DHT22;43472;48.980;9.646;2022-08-03T02:37:35;16.20;99.90
28725;DHT22;43472;48.980;9.646;2022-08-03T02:42:44;16.10;99.90
28725;DHT22;43472;48.980;9.646;2022-08-03T02:47:48;16.60;99.90
28725;DHT22;43472;48.980;9.646;2022-08-03T02:52:56;16.40;99.90
28725;DHT22;43472;48.980;9.646;2022-08-03T02:58:00;16.30;99.90
28725;DHT22;43472;48.980;9.646;2022-08-03T03:03:03;16.90;99.90
28725;DHT22;43472;48.980;9.646;2022-08-03T03:08:06;16.50;99.90
28725;DHT22;43472;48.980;9.646;2022-08-03T03:13:20;16.50;99.90
28725;DHT22;43472;48.980;9.646;2022-08-03T03:18:22;17.40;99.90
28725;DHT22;43472;48.980;9.646;2022-08-03T03:23:26;16.50;99.90
28725;DHT22;43472;48.980;9.646;2022-08-03T03:28:29;16.20;99.90
28725;DHT22;43472;48.980;9.646;2022-08-03T03:33:33;16.20;99.90
28725;DHT22;43472;48.980;9.646;2022-08-03T03:38:35;16.20;99.90
28725;DHT22;43472;48.980;9.646;2022-08-03T03:48:40;16.10;99.90
28725;DHT22;43472;48.980;9.646;2022-08-03T03:53:58;16.20;99.90
28725;DHT22;43472;48.980;9.646;2022-08-03T03:59:00;16.30;99.90
28725;DHT22;43472;48.980;9.646;2022-08-03T04:04:02;16.10;99.90
28725;DHT22;43472;48.980;9.646;2022-08-03T04:09:24;15.90;99.90
28725;DHT22;43472;48.980;9.646;2022-08-03T04:14:45;15.60;99.90
28725;DHT22;43472;48.980;9.646;2022-08-03T04:19:52;16.00;99.90
28725;DHT22;43472;48.980;9.646;2022-08-03T04:25:02;16.00;99.90
28725;DHT22;43472;48.980;9.646;2022-08-03T04:30:08;15.70;99.90
28725;DHT22;43472;48.980;9.646;2022-08-03T04:35:09;16.40;99.90
28725;DHT22;43472;48.980;9.646;2022-08-03T04:40:15;15.90;99.90
28725;DHT22;43472;48.980;9.646;2022-08-03T04:45:24;16.00;99.90
28725;DHT22;43472;48.980;9.646;2022-08-03T04:50:26;15.60;99.90
28725;DHT22;43472;48.980;9.646;2022-08-03T04:55:30;16.00;99.90
28725;DHT22;43472;48.980;9.646;2022-08-03T05:00:32;16.10;99.90
28725;DHT22;43472;48.980;9.646;2022-08-03T05:05:34;16.40;99.90
28725;DHT22;43472;48.980;9.646;2022-08-03T05:10:50;16.10;99.90
28725;DHT22;43472;48.980;9.646;2022-08-03T05:15:52;16.10;99.90
28725;DHT22;43472;48.980;9.646;2022-08-03T05:20:54;16.20;99.90
28725;DHT22;43472;48.980;9.646;2022-08-03T05:25:56;16.20;99.90
28725;DHT22;43472;48.980;9.646;2022-08-03T05:30:58;16.10;99.90
28725;DHT22;43472;48.980;9.646;2022-08-03T05:36:00;16.60;99.90
28725;DHT22;43472;48.980;9.646;2022-08-03T05:41:05;16.70;99.90
28725;DHT22;43472;48.980;9.646;2022-08-03T05:46:24;17.00;99.90
28725;DHT22;43472;48.980;9.646;2022-08-03T05:51:26;17.10;99.90
28725;DHT22;43472;48.980;9.646;2022-08-03T05:56:29;17.10;99.90
28725;DHT22;43472;48.980;9.646;2022-08-03T06:01:31;17.90;99.90
28725;DHT22;43472;48.980;9.646;2022-08-03T06:06:33;17.80;99.90
28725;DHT22;43472;48.980;9.646;2022-08-03T06:11:36;18.20;99.90
28725;DHT22;43472;48.980;9.646;2022-08-03T06:16:38;18.30;99.90
28725;DHT22;43472;48.980;9.646;2022-08-03T06:21:39;18.50;99.90
28725;DHT22;43472;48.980;9.646;2022-08-03T06:26:41;18.90;99.90
28725;DHT22;43472;48.980;9.646;2022-08-03T06:31:43;19.00;99.90
28725;DHT22;43472;48.980;9.646;2022-08-03T06:36:45;19.60;99.90
28725;DHT22;43472;48.980;9.646;2022-08-03T06:41:48;19.60;99.90
28725;DHT22;43472;48.980;9.646;2022-08-03T06:47:03;19.90;99.90
28725;DHT22;43472;48.980;9.646;2022-08-03T06:52:26;20.60;99.90
28725;DHT22;43472;48.980;9.646;2022-08-03T06:57:39;20.60;99.90
28725;DHT22;43472;48.980;9.646;2022-08-03T07:02:40;21.00;99.90
28725;DHT22;43472;48.980;9.646;2022-08-03T07:07:43;21.60;99.90
28725;DHT22;43472;48.980;9.646;2022-08-03T07:12:45;21.70;99.90
28725;DHT22;43472;48.980;9.646;2022-08-03T07:17:57;22.00;99.90
28725;DHT22;43472;48.980;9.646;2022-08-03T07:22:59;22.40;99.90
28725;DHT22;43472;48.980;9.646;2022-08-03T07:28:01;22.40;99.90
28725;DHT22;43472;48.980;9.646;2022-08-03T07:33:02;22.30;99.90
28725;DHT22;43472;48.980;9.646;2022-08-03T07:38:04;22.10;99.90
28725;DHT22;43472;48.980;9.646;2022-08-03T07:43:06;22.10;99.90
28725;DHT22;43472;48.980;9.646;2022-08-03T07:48:08;22.20;99.90
28725;DHT22;43472;48.980;9.646;2022-08-03T07:53:13;22.20;99.90
28725;DHT22;43472;48.980;9.646;2022-08-03T07:58:15;22.50;99.90
28725;DHT22;43472;48.980;9.646;2022-08-03T08:03:24;22.50;99.90
28725;DHT22;43472;48.980;9.646;2022-08-03T08:08:27;22.30;99.90
28725;DHT22;43472;48.980;9.646;2022-08-03T08:13:29;22.50;99.90
28725;DHT22;43472;48.980;9.646;2022-08-03T08:18:31;22.60;99.90
28725;DHT22;43472;48.980;9.646;2022-08-03T08:23:33;22.50;99.90
28725;DHT22;43472;48.980;9.646;2022-08-03T08:28:46;22.80;99.90
28725;DHT22;43472;48.980;9.646;2022-08-03T08:33:48;22.60;99.90
28725;DHT22;43472;48.980;9.646;2022-08-03T08:39:05;22.70;99.90
28725;DHT22;43472;48.980;9.646;2022-08-03T08:44:07;22.80;99.90
28725;DHT22;43472;48.980;9.646;2022-08-03T08:49:11;22.70;99.90
28725;DHT22;43472;48.980;9.646;2022-08-03T08:54:20;22.70;99.90
28725;DHT22;43472;48.980;9.646;2022-08-03T08:59:23;23.30;99.90
28725;DHT22;43472;48.980;9.646;2022-08-03T09:04:29;23.40;99.90
28725;DHT22;43472;48.980;9.646;2022-08-03T09:09:31;23.20;99.90
28725;DHT22;43472;48.980;9.646;2022-08-03T09:14:54;23.70;99.90
28725;DHT22;43472;48.980;9.646;2022-08-03T09:20:17;23.70;99.90
28725;DHT22;43472;48.980;9.646;2022-08-03T09:25:25;24.20;99.90
28725;DHT22;43472;48.980;9.646;2022-08-03T09:30:27;23.90;99.90
28725;DHT22;43472;48.980;9.646;2022-08-03T09:35:42;23.60;99.90
28725;DHT22;43472;48.980;9.646;2022-08-03T09:41:00;23.60;99.90
28725;DHT22;43472;48.980;9.646;2022-08-03T09:46:03;26.50;98.70
28725;DHT22;43472;48.980;9.646;2022-08-03T09:51:05;24.10;99.90
28725;DHT22;43472;48.980;9.646;2022-08-03T09:56:16;23.90;99.90
28725;DHT22;43472;48.980;9.646;2022-08-03T10:01:37;23.70;99.90
28725;DHT22;43472;48.980;9.646;2022-08-03T10:06:43;27.20;97.80
28725;DHT22;43472;48.980;9.646;2022-08-03T10:11:45;25.50;99.20
28725;DHT22;43472;48.980;9.646;2022-08-03T10:16:48;23.70;99.90
28725;DHT22;43472;48.980;9.646;2022-08-03T10:21:55;23.40;99.90
28725;DHT22;43472;48.980;9.646;2022-08-03T10:27:04;25.70;99.90
28725;DHT22;43472;48.980;9.646;2022-08-03T10:32:17;26.40;97.80
28725;DHT22;43472;48.980;9.646;2022-08-03T10:37:21;25.40;99.80
28725;DHT22;43472;48.980;9.646;2022-08-03T10:42:25;26.10;97.90
28725;DHT22;43472;48.980;9.646;2022-08-03T10:47:28;26.00;98.30
28725;DHT22;43472;48.980;9.646;2022-08-03T10:52:31;27.60;95.30
28725;DHT22;43472;48.980;9.646;2022-08-03T10:57:48;28.60;94.70
28725;DHT22;43472;48.980;9.646;2022-08-03T11:03:12;27.30;96.30
28725;DHT22;43472;48.980;9.646;2022-08-03T11:13:24;24.90;99.60
28725;DHT22;43472;48.980;9.646;2022-08-03T11:18:29;24.80;93.40
28725;DHT22;43472;48.980;9.646;2022-08-03T11:23:45;26.90;94.80
28725;DHT22;43472;48.980;9.646;2022-08-03T11:29:26;28.50;93.60
28725;DHT22;43472;48.980;9.646;2022-08-03T11:34:29;27.20;93.70
28725;DHT22;43472;48.980;9.646;2022-08-03T11:39:43;25.70;97.80
28725;DHT22;43472;48.980;9.646;2022-08-03T11:44:46;26.50;96.50
28725;DHT22;43472;48.980;9.646;2022-08-03T11:49:49;25.10;98.70
28725;DHT22;43472;48.980;9.646;2022-08-03T11:54:52;25.90;97.40
28725;DHT22;43472;48.980;9.646;2022-08-03T11:59:57;27.90;94.10
28725;DHT22;43472;48.980;9.646;2022-08-03T12:04:59;28.90;92.50
28725;DHT22;43472;48.980;9.646;2022-08-03T12:10:12;29.10;90.80
28725;DHT22;43472;48.980;9.646;2022-08-03T12:15:14;28.30;92.30
28725;DHT22;43472;48.980;9.646;2022-08-03T12:20:21;26.40;95.20
28725;DHT22;43472;48.980;9.646;2022-08-03T12:25:37;27.40;92.70
28725;DHT22;43472;48.980;9.646;2022-08-03T12:30:40;25.30;96.90
28725;DHT22;43472;48.980;9.646;2022-08-03T12:35:42;27.90;93.10
28725;DHT22;43472;48.980;9.646;2022-08-03T12:40:59;28.40;91.20
28725;DHT22;43472;48.980;9.646;2022-08-03T12:46:13;25.80;95.40
28725;DHT22;43472;48.980;9.646;2022-08-03T12:51:15;25.70;95.70
28725;DHT22;43472;48.980;9.646;2022-08-03T12:56:17;25.30;95.50
28725;DHT22;43472;48.980;9.646;2022-08-03T13:01:20;24.50;97.70
28725;DHT22;43472;48.980;9.646;2022-08-03T13:06:26;24.50;98.00
28725;DHT22;43472;48.980;9.646;2022-08-03T13:11:28;25.10;96.50
28725;DHT22;43472;48.980;9.646;2022-08-03T13:16:50;25.40;96.10
28725;DHT22;43472;48.980;9.646;2022-08-03T13:21:52;25.30;96.40
28725;DHT22;43472;48.980;9.646;2022-08-03T13:27:05;29.40;90.80
28725;DHT22;43472;48.980;9.646;2022-08-03T13:32:28;29.60;88.90
28725;DHT22;43472;48.980;9.646;2022-08-03T13:37:30;26.70;94.30
28725;DHT22;43472;48.980;9.646;2022-08-03T13:42:34;26.40;94.60
28725;DHT22;43472;48.980;9.646;2022-08-03T13:47:36;25.20;96.50
28725;DHT22;43472;48.980;9.646;2022-08-03T13:52:38;28.10;92.30
28725;DHT22;43472;48.980;9.646;2022-08-03T13:57:40;28.40;91.80
28725;DHT22;43472;48.980;9.646;2022-08-03T14:03:02;28.10;92.50
28725;DHT22;43472;48.980;9.646;2022-08-03T14:08:13;28.70;91.20
28725;DHT22;43472;48.980;9.646;2022-08-03T14:13:15;27.00;93.40
28725;DHT22;43472;48.980;9.646;2022-08-03T14:18:19;28.20;91.30
28725;DHT22;43472;48.980;9.646;2022-08-03T14:23:29;29.50;90.30
28725;DHT22;43472;48.980;9.646;2022-08-03T14:28:32;27.10;94.00
28725;DHT22;43472;48.980;9.646;2022-08-03T14:33:33;24.70;96.70
28725;DHT22;43472;48.980;9.646;2022-08-03T14:38:35;26.30;93.70
28725;DHT22;43472;48.980;9.646;2022-08-03T14:43:37;26.40;94.30
28725;DHT22;43472;48.980;9.646;2022-08-03T14:48:39;25.30;95.90
28725;DHT22;43472;48.980;9.646;2022-08-03T14:54:01;30.00;87.00
28725;DHT22;43472;48.980;9.646;2022-08-03T14:59:02;26.50;93.60
28725;DHT22;43472;48.980;9.646;2022-08-03T15:04:04;24.70;96.50
28725;DHT22;43472;48.980;9.646;2022-08-03T15:09:06;25.70;94.90
28725;DHT22;43472;48.980;9.646;2022-08-03T15:14:24;24.60;96.70
28725;DHT22;43472;48.980;9.646;2022-08-03T15:19:34;25.10;96.30
28725;DHT22;43472;48.980;9.646;2022-08-03T15:24:55;29.50;90.30
28725;DHT22;43472;48.980;9.646;2022-08-03T15:29:58;27.20;92.80
28725;DHT22;43472;48.980;9.646;2022-08-03T15:35:10;25.70;94.90
28725;DHT22;43472;48.980;9.646;2022-08-03T15:40:11;24.60;96.80
28725;DHT22;43472;48.980;9.646;2022-08-03T15:45:13;26.90;93.90
28725;DHT22;43472;48.980;9.646;2022-08-03T15:50:18;25.20;94.90
28725;DHT22;43472;48.980;9.646;2022-08-03T15:55:20;25.80;95.10
28725;DHT22;43472;48.980;9.646;2022-08-03T16:00:22;24.60;96.70
28725;DHT22;43472;48.980;9.646;2022-08-03T16:05:34;25.50;93.60
28725;DHT22;43472;48.980;9.646;2022-08-03T16:10:36;24.70;96.50
28725;DHT22;43472;48.980;9.646;2022-08-03T16:15:38;25.70;95.10
28725;DHT22;43472;48.980;9.646;2022-08-03T16:20:40;24.60;96.60
28725;DHT22;43472;48.980;9.646;2022-08-03T16:25:42;24.20;97.30
28725;DHT22;43472;48.980;9.646;2022-08-03T16:30:49;25.70;93.80
28725;DHT22;43472;48.980;9.646;2022-08-03T16:35:51;24.20;97.00
28725;DHT22;43472;48.980;9.646;2022-08-03T16:40:53;24.30;97.10
28725;DHT22;43472;48.980;9.646;2022-08-03T16:45:55;23.90;97.50
28725;DHT22;43472;48.980;9.646;2022-08-03T16:50:57;23.80;97.70
28725;DHT22;43472;48.980;9.646;2022-08-03T16:55:59;25.60;94.80
28725;DHT22;43472;48.980;9.646;2022-08-03T17:01:01;24.40;96.60
28725;DHT22;43472;48.980;9.646;2022-08-03T17:06:23;24.50;96.50
28725;DHT22;43472;48.980;9.646;2022-08-03T17:11:34;22.10;93.60
28725;DHT22;43472;48.980;9.646;2022-08-03T17:16:37;25.10;95.10
28725;DHT22;43472;48.980;9.646;2022-08-03T17:21:49;25.50;93.80
28725;DHT22;43472;48.980;9.646;2022-08-03T17:26:53;24.40;96.60
28725;DHT22;43472;48.980;9.646;2022-08-03T17:31:56;24.10;97.20
28725;DHT22;43472;48.980;9.646;2022-08-03T17:36:59;24.30;96.80
28725;DHT22;43472;48.980;9.646;2022-08-03T17:42:09;23.80;95.30
28725;DHT22;43472;48.980;9.646;2022-08-03T17:47:32;23.90;97.50
28725;DHT22;43472;48.980;9.646;2022-08-03T17:52:45;25.30;94.40
28725;DHT22;43472;48.980;9.646;2022-08-03T17:58:01;24.30;96.80
28725;DHT22;43472;48.980;9.646;2022-08-03T18:08:32;23.60;98.10
28725;DHT22;43472;48.980;9.646;2022-08-03T18:13:44;23.50;98.20
28725;DHT22;43472;48.980;9.646;2022-08-03T18:18:59;23.60;98.50
28725;DHT22;43472;48.980;9.646;2022-08-03T18:24:10;23.60;98.30
28725;DHT22;43472;48.980;9.646;2022-08-03T18:29:12;23.60;98.60
28725;DHT22;43472;48.980;9.646;2022-08-03T18:34:19;23.40;98.90
28725;DHT22;43472;48.980;9.646;2022-08-03T18:39:38;23.40;98.90
28725;DHT22;43472;48.980;9.646;2022-08-03T18:44:50;23.40;99.00
28725;DHT22;43472;48.980;9.646;2022-08-03T18:55:19;23.40;99.20
28725;DHT22;43472;48.980;9.646;2022-08-03T19:00:40;23.30;99.30
28725;DHT22;43472;48.980;9.646;2022-08-03T19:06:02;23.30;99.40
28725;DHT22;43472;48.980;9.646;2022-08-03T19:11:24;23.30;99.50
28725;DHT22;43472;48.980;9.646;2022-08-03T19:16:51;23.30;99.50
28725;DHT22;43472;48.980;9.646;2022-08-03T19:21:56;23.40;99.60
28725;DHT22;43472;48.980;9.646;2022-08-03T19:26:59;23.50;99.50
28725;DHT22;43472;48.980;9.646;2022-08-03T19:32:02;24.10;99.00
28725;DHT22;43472;48.980;9.646;2022-08-03T19:37:10;24.70;98.40
28725;DHT22;43472;48.980;9.646;2022-08-03T19:42:29;25.00;97.90
28725;DHT22;43472;48.980;9.646;2022-08-03T19:53:11;24.90;98.40
28725;DHT22;43472;48.980;9.646;2022-08-03T19:58:14;24.40;98.90
28725;DHT22;43472;48.980;9.646;2022-08-03T20:03:28;24.60;98.80
28725;DHT22;43472;48.980;9.646;2022-08-03T20:08:44;24.70;99.20
28725;DHT22;43472;48.980;9.646;2022-08-03T20:13:53;24.50;99.10
28725;DHT22;43472;48.980;9.646;2022-08-03T20:18:55;24.40;99.30
28725;DHT22;43472;48.980;9.646;2022-08-03T20:23:58;24.50;98.70
28725;DHT22;43472;48.980;9.646;2022-08-03T20:29:29;24.40;98.50
28725;DHT22;43472;48.980;9.646;2022-08-03T20:34:51;24.40;99.70
28725;DHT22;43472;48.980;9.646;2022-08-03T20:39:53;24.30;99.70
28725;DHT22;43472;48.980;9.646;2022-08-03T20:44:55;23.90;99.90
28725;DHT22;43472;48.980;9.646;2022-08-03T20:50:08;23.80;99.90
28725;DHT22;43472;48.980;9.646;2022-08-03T20:55:11;23.90;99.80
28725;DHT22;43472;48.980;9.646;2022-08-03T21:00:15;23.50;99.90
28725;DHT22;43472;48.980;9.646;2022-08-03T21:05:22;23.40;99.90
28725;DHT22;43472;48.980;9.646;2022-08-03T21:10:46;23.30;99.90
28725;DHT22;43472;48.980;9.646;2022-08-03T21:15:50;23.40;99.90
28725;DHT22;43472;48.980;9.646;2022-08-03T21:21:14;23.40;99.90
28725;DHT22;43472;48.980;9.646;2022-08-03T21:26:19;23.10;99.90
28725;DHT22;43472;48.980;9.646;2022-08-03T21:31:22;21.00;99.90
28725;DHT22;43472;48.980;9.646;2022-08-03T21:36:28;22.80;99.90
28725;DHT22;43472;48.980;9.646;2022-08-03T21:41:31;22.60;99.90
28725;DHT22;43472;48.980;9.646;2022-08-03T21:46:35;22.60;99.90
28725;DHT22;43472;48.980;9.646;2022-08-03T21:51:38;22.60;99.90
28725;DHT22;43472;48.980;9.646;2022-08-03T21:56:41;22.60;99.90
28725;DHT22;43472;48.980;9.646;2022-08-03T22:01:45;22.30;99.90
28725;DHT22;43472;48.980;9.646;2022-08-03T22:06:51;22.20;99.90
28725;DHT22;43472;48.980;9.646;2022-08-03T22:11:53;22.20;99.90
28725;DHT22;43472;48.980;9.646;2022-08-03T22:16:55;22.20;99.90
28725;DHT22;43472;48.980;9.646;2022-08-03T22:21:58;22.10;99.90
28725;DHT22;43472;48.980;9.646;2022-08-03T22:27:01;21.80;99.90
28725;DHT22;43472;48.980;9.646;2022-08-03T22:32:22;22.00;99.90
28725;DHT22;43472;48.980;9.646;2022-08-03T22:37:26;21.70;99.90
28725;DHT22;43472;48.980;9.646;2022-08-03T22:42:32;21.60;99.90
28725;DHT22;43472;48.980;9.646;2022-08-03T22:47:38;21.60;99.90
28725;DHT22;43472;48.980;9.646;2022-08-03T22:52:42;21.50;99.90
28725;DHT22;43472;48.980;9.646;2022-08-03T22:57:44;21.70;99.90
28725;DHT22;43472;48.980;9.646;2022-08-03T23:02:58;21.50;99.90
28725;DHT22;43472;48.980;9.646;2022-08-03T23:08:02;21.30;99.90
28725;DHT22;43472;48.980;9.646;2022-08-03T23:13:04;21.20;99.90
28725;DHT22;43472;48.980;9.646;2022-08-03T23:18:07;21.30;99.90
28725;DHT22;43472;48.980;9.646;2022-08-03T23:23:10;20.90;99.90
28725;DHT22;43472;48.980;9.646;2022-08-03T23:28:14;21.00;99.90
28725;DHT22;43472;48.980;9.646;2022-08-03T23:33:17;21.00;99.90
28725;DHT22;43472;48.980;9.646;2022-08-03T23:38:19;20.90;99.90
28725;DHT22;43472;48.980;9.646;2022-08-03T23:43:25;20.60;99.90
28725;DHT22;43472;48.980;9.646;2022-08-03T23:48:48;20.70;99.90
28725;DHT22;43472;48.980;9.646;2022-08-03T23:53:53;21.90;99.90
28725;DHT22;43472;48.980;9.646;2022-08-03T23:59:16;20.50;99.90
